sensor_id;sensor_type;location;lat;lon;timestamp;P1;durP1;ratioP1;P2;durP2;ratioP2
64060;SDS011;60147;55.036;73.242;2023-06-22T00:00:39;3.08;;;0.70;;
64060;SDS011;60147;55.036;73.242;2023-06-22T00:03:07;2.05;;;0.70;;
64060;SDS011;60147;55.036;73.242;2023-06-22T00:05:33;1.52;;;0.50;;
64060;SDS011;60147;55.036;73.242;2023-06-22T00:08:19;3.85;;;0.70;;
64060;SDS011;60147;55.036;73.242;2023-06-22T00:10:45;1.08;;;0.68;;
64060;SDS011;60147;55.036;73.242;2023-06-22T00:13:12;2.15;;;0.82;;
64060;SDS011;60147;55.036;73.242;2023-06-22T00:15:39;2.20;;;1.10;;
64060;SDS011;60147;55.036;73.242;2023-06-22T00:18:09;2.50;;;0.90;;
64060;SDS011;60147;55.036;73.242;2023-06-22T00:20:35;2.53;;;0.93;;
64060;SDS011;60147;55.036;73.242;2023-06-22T00:23:04;2.42;;;1.10;;
64060;SDS011;60147;55.036;73.242;2023-06-22T00:25:39;3.60;;;1.13;;
64060;SDS011;60147;55.036;73.242;2023-06-22T00:33:57;2.92;;;1.25;;
64060;SDS011;60147;55.036;73.242;2023-06-22T00:36:41;3.90;;;1.38;;
64060;SDS011;60147;55.036;73.242;2023-06-22T00:39:07;3.25;;;1.50;;
64060;SDS011;60147;55.036;73.242;2023-06-22T00:44:18;2.47;;;1.33;;
64060;SDS011;60147;55.036;73.242;2023-06-22T00:47:03;3.50;;;1.17;;
64060;SDS011;60147;55.036;73.242;2023-06-22T00:49:29;2.75;;;1.40;;
64060;SDS011;60147;55.036;73.242;2023-06-22T00:51:55;3.45;;;1.30;;
64060;SDS011;60147;55.036;73.242;2023-06-22T00:57:14;1.70;;;1.08;;
64060;SDS011;60147;55.036;73.242;2023-06-22T00:59:43;5.57;;;1.35;;
64060;SDS011;60147;55.036;73.242;2023-06-22T01:02:28;2.70;;;1.50;;
64060;SDS011;60147;55.036;73.242;2023-06-22T01:04:55;3.67;;;1.13;;
64060;SDS011;60147;55.036;73.242;2023-06-22T01:07:44;4.90;;;1.42;;
64060;SDS011;60147;55.036;73.242;2023-06-22T01:15:37;3.08;;;1.40;;
64060;SDS011;60147;55.036;73.242;2023-06-22T01:21:14;5.20;;;1.25;;
64060;SDS011;60147;55.036;73.242;2023-06-22T01:24:45;7.88;;;1.20;;
64060;SDS011;60147;55.036;73.242;2023-06-22T01:29:17;1.98;;;0.98;;
64060;SDS011;60147;55.036;73.242;2023-06-22T01:34:29;2.42;;;0.90;;
64060;SDS011;60147;55.036;73.242;2023-06-22T01:37:14;1.77;;;0.90;;
64060;SDS011;60147;55.036;73.242;2023-06-22T01:39:41;5.82;;;1.27;;
64060;SDS011;60147;55.036;73.242;2023-06-22T01:42:25;2.03;;;1.00;;
64060;SDS011;60147;55.036;73.242;2023-06-22T01:47:37;3.80;;;0.85;;
64060;SDS011;60147;55.036;73.242;2023-06-22T01:50:03;1.88;;;0.82;;
64060;SDS011;60147;55.036;73.242;2023-06-22T01:52:30;3.47;;;1.15;;
64060;SDS011;60147;55.036;73.242;2023-06-22T01:54:56;2.40;;;0.80;;
64060;SDS011;60147;55.036;73.242;2023-06-22T01:57:23;1.45;;;0.73;;
64060;SDS011;60147;55.036;73.242;2023-06-22T02:05:30;0.77;;;0.52;;
64060;SDS011;60147;55.036;73.242;2023-06-22T02:08:30;3.70;;;1.08;;
64060;SDS011;60147;55.036;73.242;2023-06-22T02:13:24;3.13;;;1.00;;
64060;SDS011;60147;55.036;73.242;2023-06-22T02:15:51;3.67;;;1.00;;
64060;SDS011;60147;55.036;73.242;2023-06-22T02:21:06;1.88;;;0.82;;
64060;SDS011;60147;55.036;73.242;2023-06-22T02:23:32;2.63;;;0.60;;
64060;SDS011;60147;55.036;73.242;2023-06-22T02:26:17;5.13;;;0.68;;
64060;SDS011;60147;55.036;73.242;2023-06-22T02:28:43;1.73;;;0.68;;
64060;SDS011;60147;55.036;73.242;2023-06-22T02:31:27;1.45;;;0.70;;
64060;SDS011;60147;55.036;73.242;2023-06-22T02:36:45;2.20;;;1.00;;
64060;SDS011;60147;55.036;73.242;2023-06-22T02:39:34;1.25;;;0.88;;
64060;SDS011;60147;55.036;73.242;2023-06-22T02:44:46;1.83;;;0.88;;
64060;SDS011;60147;55.036;73.242;2023-06-22T02:47:13;3.72;;;0.70;;
64060;SDS011;60147;55.036;73.242;2023-06-22T02:50:16;2.42;;;1.00;;
64060;SDS011;60147;55.036;73.242;2023-06-22T02:52:42;1.10;;;0.68;;
64060;SDS011;60147;55.036;73.242;2023-06-22T02:55:08;4.20;;;1.10;;
64060;SDS011;60147;55.036;73.242;2023-06-22T02:57:52;1.80;;;0.60;;
64060;SDS011;60147;55.036;73.242;2023-06-22T03:00:22;1.65;;;0.80;;
64060;SDS011;60147;55.036;73.242;2023-06-22T03:02:48;2.35;;;1.13;;
64060;SDS011;60147;55.036;73.242;2023-06-22T03:05:15;1.65;;;0.73;;
64060;SDS011;60147;55.036;73.242;2023-06-22T03:07:44;2.00;;;0.85;;
64060;SDS011;60147;55.036;73.242;2023-06-22T03:10:10;3.17;;;0.70;;
64060;SDS011;60147;55.036;73.242;2023-06-22T03:12:37;3.60;;;1.10;;
64060;SDS011;60147;55.036;73.242;2023-06-22T03:15:04;2.88;;;0.90;;
64060;SDS011;60147;55.036;73.242;2023-06-22T03:17:30;1.27;;;0.70;;
64060;SDS011;60147;55.036;73.242;2023-06-22T03:19:56;3.00;;;0.75;;
64060;SDS011;60147;55.036;73.242;2023-06-22T03:25:07;1.92;;;1.02;;
64060;SDS011;60147;55.036;73.242;2023-06-22T03:27:41;1.55;;;0.70;;
64060;SDS011;60147;55.036;73.242;2023-06-22T03:30:08;1.05;;;0.63;;
64060;SDS011;60147;55.036;73.242;2023-06-22T03:32:34;1.35;;;0.60;;
64060;SDS011;60147;55.036;73.242;2023-06-22T03:35:00;1.65;;;0.70;;
64060;SDS011;60147;55.036;73.242;2023-06-22T03:40:11;1.98;;;0.90;;
64060;SDS011;60147;55.036;73.242;2023-06-22T03:42:41;1.20;;;0.60;;
64060;SDS011;60147;55.036;73.242;2023-06-22T03:47:53;2.88;;;0.60;;
64060;SDS011;60147;55.036;73.242;2023-06-22T03:50:19;4.13;;;0.77;;
64060;SDS011;60147;55.036;73.242;2023-06-22T03:52:48;3.13;;;0.90;;
64060;SDS011;60147;55.036;73.242;2023-06-22T03:57:59;4.22;;;1.15;;
64060;SDS011;60147;55.036;73.242;2023-06-22T04:00:50;1.15;;;0.70;;
64060;SDS011;60147;55.036;73.242;2023-06-22T04:03:28;1.17;;;0.75;;
64060;SDS011;60147;55.036;73.242;2023-06-22T04:05:54;1.75;;;0.80;;
64060;SDS011;60147;55.036;73.242;2023-06-22T04:08:20;0.98;;;0.50;;
64060;SDS011;60147;55.036;73.242;2023-06-22T04:10:46;3.25;;;0.60;;
64060;SDS011;60147;55.036;73.242;2023-06-22T04:13:12;2.08;;;0.85;;
64060;SDS011;60147;55.036;73.242;2023-06-22T04:15:37;2.17;;;0.90;;
64060;SDS011;60147;55.036;73.242;2023-06-22T04:18:03;0.77;;;0.60;;
64060;SDS011;60147;55.036;73.242;2023-06-22T04:20:30;2.88;;;0.70;;
64060;SDS011;60147;55.036;73.242;2023-06-22T04:22:56;1.25;;;0.70;;
64060;SDS011;60147;55.036;73.242;2023-06-22T04:25:23;3.40;;;0.70;;
64060;SDS011;60147;55.036;73.242;2023-06-22T04:27:49;3.25;;;0.68;;
64060;SDS011;60147;55.036;73.242;2023-06-22T04:30:16;2.13;;;0.82;;
64060;SDS011;60147;55.036;73.242;2023-06-22T04:32:42;2.20;;;1.30;;
64060;SDS011;60147;55.036;73.242;2023-06-22T04:35:09;2.58;;;1.15;;
64060;SDS011;60147;55.036;73.242;2023-06-22T04:37:55;2.67;;;0.85;;
64060;SDS011;60147;55.036;73.242;2023-06-22T04:40:22;0.93;;;0.52;;
64060;SDS011;60147;55.036;73.242;2023-06-22T04:42:48;3.20;;;1.35;;
64060;SDS011;60147;55.036;73.242;2023-06-22T04:48:29;3.42;;;1.10;;
64060;SDS011;60147;55.036;73.242;2023-06-22T04:50:58;2.03;;;1.20;;
64060;SDS011;60147;55.036;73.242;2023-06-22T04:53:28;1.23;;;0.80;;
64060;SDS011;60147;55.036;73.242;2023-06-22T04:56:15;1.55;;;0.80;;
64060;SDS011;60147;55.036;73.242;2023-06-22T04:59:01;1.17;;;0.88;;
64060;SDS011;60147;55.036;73.242;2023-06-22T05:01:29;0.98;;;0.60;;
64060;SDS011;60147;55.036;73.242;2023-06-22T05:03:56;1.30;;;0.80;;
64060;SDS011;60147;55.036;73.242;2023-06-22T05:06:23;0.90;;;0.35;;
64060;SDS011;60147;55.036;73.242;2023-06-22T05:08:53;2.20;;;1.23;;
64060;SDS011;60147;55.036;73.242;2023-06-22T05:11:26;3.45;;;1.10;;
64060;SDS011;60147;55.036;73.242;2023-06-22T05:14:11;0.95;;;0.60;;
64060;SDS011;60147;55.036;73.242;2023-06-22T05:16:37;1.13;;;0.55;;
64060;SDS011;60147;55.036;73.242;2023-06-22T05:19:03;0.88;;;0.50;;
64060;SDS011;60147;55.036;73.242;2023-06-22T05:21:30;1.73;;;0.60;;
64060;SDS011;60147;55.036;73.242;2023-06-22T05:23:56;1.83;;;0.60;;
64060;SDS011;60147;55.036;73.242;2023-06-22T05:26:28;2.15;;;0.80;;
64060;SDS011;60147;55.036;73.242;2023-06-22T05:31:39;2.50;;;1.15;;
64060;SDS011;60147;55.036;73.242;2023-06-22T05:34:06;2.20;;;0.90;;
64060;SDS011;60147;55.036;73.242;2023-06-22T05:36:32;1.70;;;1.00;;
64060;SDS011;60147;55.036;73.242;2023-06-22T05:42:05;39.47;;;3.70;;
64060;SDS011;60147;55.036;73.242;2023-06-22T05:44:32;1.75;;;1.10;;
64060;SDS011;60147;55.036;73.242;2023-06-22T05:49:44;3.28;;;1.42;;
64060;SDS011;60147;55.036;73.242;2023-06-22T05:52:10;2.63;;;0.93;;
64060;SDS011;60147;55.036;73.242;2023-06-22T05:54:36;1.83;;;0.73;;
64060;SDS011;60147;55.036;73.242;2023-06-22T05:57:04;1.25;;;1.00;;
64060;SDS011;60147;55.036;73.242;2023-06-22T05:59:30;3.40;;;1.00;;
64060;SDS011;60147;55.036;73.242;2023-06-22T06:01:56;1.67;;;0.80;;
64060;SDS011;60147;55.036;73.242;2023-06-22T06:04:23;1.00;;;0.80;;
64060;SDS011;60147;55.036;73.242;2023-06-22T06:09:53;3.45;;;0.90;;
64060;SDS011;60147;55.036;73.242;2023-06-22T06:15:04;2.40;;;0.90;;
64060;SDS011;60147;55.036;73.242;2023-06-22T06:17:31;0.98;;;0.77;;
64060;SDS011;60147;55.036;73.242;2023-06-22T06:19:58;3.08;;;1.38;;
64060;SDS011;60147;55.036;73.242;2023-06-22T06:22:43;5.75;;;1.30;;
64060;SDS011;60147;55.036;73.242;2023-06-22T06:25:09;4.20;;;1.40;;
64060;SDS011;60147;55.036;73.242;2023-06-22T06:27:37;1.80;;;1.10;;
64060;SDS011;60147;55.036;73.242;2023-06-22T06:30:03;3.88;;;1.60;;
64060;SDS011;60147;55.036;73.242;2023-06-22T06:32:49;9.27;;;1.50;;
64060;SDS011;60147;55.036;73.242;2023-06-22T06:38:18;0.70;;;0.70;;
64060;SDS011;60147;55.036;73.242;2023-06-22T06:40:45;1.75;;;0.82;;
64060;SDS011;60147;55.036;73.242;2023-06-22T06:43:12;2.67;;;0.80;;
64060;SDS011;60147;55.036;73.242;2023-06-22T06:45:38;1.10;;;0.60;;
64060;SDS011;60147;55.036;73.242;2023-06-22T06:48:04;2.20;;;0.80;;
64060;SDS011;60147;55.036;73.242;2023-06-22T06:50:30;0.93;;;0.68;;
64060;SDS011;60147;55.036;73.242;2023-06-22T06:53:00;2.13;;;0.93;;
64060;SDS011;60147;55.036;73.242;2023-06-22T06:55:26;1.33;;;0.70;;
64060;SDS011;60147;55.036;73.242;2023-06-22T06:57:52;0.88;;;0.70;;
64060;SDS011;60147;55.036;73.242;2023-06-22T07:00:18;2.05;;;1.00;;
64060;SDS011;60147;55.036;73.242;2023-06-22T07:02:45;3.83;;;1.10;;
64060;SDS011;60147;55.036;73.242;2023-06-22T07:05:11;3.63;;;0.80;;
64060;SDS011;60147;55.036;73.242;2023-06-22T07:07:38;2.38;;;1.10;;
64060;SDS011;60147;55.036;73.242;2023-06-22T07:10:05;10.30;;;1.10;;
64060;SDS011;60147;55.036;73.242;2023-06-22T07:12:31;6.35;;;0.80;;
64060;SDS011;60147;55.036;73.242;2023-06-22T07:15:03;1.05;;;0.70;;
64060;SDS011;60147;55.036;73.242;2023-06-22T07:17:30;2.80;;;0.88;;
64060;SDS011;60147;55.036;73.242;2023-06-22T07:19:56;3.00;;;1.10;;
64060;SDS011;60147;55.036;73.242;2023-06-22T07:22:25;3.30;;;1.00;;
64060;SDS011;60147;55.036;73.242;2023-06-22T07:24:52;2.47;;;1.00;;
64060;SDS011;60147;55.036;73.242;2023-06-22T07:27:43;2.05;;;0.77;;
64060;SDS011;60147;55.036;73.242;2023-06-22T07:30:09;2.08;;;1.10;;
64060;SDS011;60147;55.036;73.242;2023-06-22T07:32:54;2.03;;;0.90;;
64060;SDS011;60147;55.036;73.242;2023-06-22T07:35:20;4.50;;;1.55;;
64060;SDS011;60147;55.036;73.242;2023-06-22T07:37:46;6.10;;;1.13;;
64060;SDS011;60147;55.036;73.242;2023-06-22T07:40:12;6.30;;;1.77;;
64060;SDS011;60147;55.036;73.242;2023-06-22T07:42:40;3.47;;;1.30;;
64060;SDS011;60147;55.036;73.242;2023-06-22T07:45:06;9.13;;;1.85;;
64060;SDS011;60147;55.036;73.242;2023-06-22T07:47:35;6.03;;;1.60;;
64060;SDS011;60147;55.036;73.242;2023-06-22T07:50:02;4.28;;;2.60;;
64060;SDS011;60147;55.036;73.242;2023-06-22T07:52:28;3.05;;;1.50;;
64060;SDS011;60147;55.036;73.242;2023-06-22T07:54:54;6.93;;;1.50;;
64060;SDS011;60147;55.036;73.242;2023-06-22T07:57:20;13.82;;;1.75;;
64060;SDS011;60147;55.036;73.242;2023-06-22T08:00:05;13.05;;;10.68;;
64060;SDS011;60147;55.036;73.242;2023-06-22T08:02:43;9.32;;;5.30;;
64060;SDS011;60147;55.036;73.242;2023-06-22T08:05:09;7.13;;;1.60;;
64060;SDS011;60147;55.036;73.242;2023-06-22T08:10:20;5.18;;;2.58;;
64060;SDS011;60147;55.036;73.242;2023-06-22T08:12:47;12.13;;;2.95;;
64060;SDS011;60147;55.036;73.242;2023-06-22T08:15:32;3.72;;;1.00;;
64060;SDS011;60147;55.036;73.242;2023-06-22T08:20:43;6.68;;;1.80;;
64060;SDS011;60147;55.036;73.242;2023-06-22T08:23:09;2.03;;;0.80;;
64060;SDS011;60147;55.036;73.242;2023-06-22T08:25:53;1.65;;;1.02;;
64060;SDS011;60147;55.036;73.242;2023-06-22T08:31:03;1.88;;;1.00;;
64060;SDS011;60147;55.036;73.242;2023-06-22T08:33:29;5.13;;;1.08;;
64060;SDS011;60147;55.036;73.242;2023-06-22T08:36:14;2.90;;;1.00;;
64060;SDS011;60147;55.036;73.242;2023-06-22T08:38:40;1.42;;;0.80;;
64060;SDS011;60147;55.036;73.242;2023-06-22T08:41:06;1.40;;;0.80;;
64060;SDS011;60147;55.036;73.242;2023-06-22T08:43:32;4.00;;;0.80;;
64060;SDS011;60147;55.036;73.242;2023-06-22T08:45:58;1.60;;;0.80;;
64060;SDS011;60147;55.036;73.242;2023-06-22T08:48:24;0.98;;;0.75;;
64060;SDS011;60147;55.036;73.242;2023-06-22T08:50:50;1.45;;;0.80;;
64060;SDS011;60147;55.036;73.242;2023-06-22T08:53:16;2.08;;;0.70;;
64060;SDS011;60147;55.036;73.242;2023-06-22T08:55:42;4.85;;;1.00;;
64060;SDS011;60147;55.036;73.242;2023-06-22T09:00:52;1.85;;;0.70;;
64060;SDS011;60147;55.036;73.242;2023-06-22T09:03:27;3.92;;;1.60;;
64060;SDS011;60147;55.036;73.242;2023-06-22T09:05:53;7.60;;;4.38;;
64060;SDS011;60147;55.036;73.242;2023-06-22T09:08:19;5.88;;;1.80;;
64060;SDS011;60147;55.036;73.242;2023-06-22T09:13:30;2.38;;;1.05;;
64060;SDS011;60147;55.036;73.242;2023-06-22T09:15:56;3.83;;;2.25;;
64060;SDS011;60147;55.036;73.242;2023-06-22T09:21:07;5.43;;;2.70;;
64060;SDS011;60147;55.036;73.242;2023-06-22T09:23:33;4.80;;;2.33;;
64060;SDS011;60147;55.036;73.242;2023-06-22T09:25:59;4.32;;;3.20;;
64060;SDS011;60147;55.036;73.242;2023-06-22T09:28:25;6.88;;;2.05;;
64060;SDS011;60147;55.036;73.242;2023-06-22T09:31:09;2.50;;;1.10;;
64060;SDS011;60147;55.036;73.242;2023-06-22T09:34:12;2.33;;;1.40;;
64060;SDS011;60147;55.036;73.242;2023-06-22T09:36:57;1.77;;;1.05;;
64060;SDS011;60147;55.036;73.242;2023-06-22T09:39:26;1.83;;;1.10;;
64060;SDS011;60147;55.036;73.242;2023-06-22T09:41:51;2.80;;;0.90;;
64060;SDS011;60147;55.036;73.242;2023-06-22T09:44:18;0.95;;;0.63;;
64060;SDS011;60147;55.036;73.242;2023-06-22T09:46:44;2.17;;;0.77;;
64060;SDS011;60147;55.036;73.242;2023-06-22T09:49:09;1.85;;;0.77;;
64060;SDS011;60147;55.036;73.242;2023-06-22T09:54:23;2.50;;;1.70;;
64060;SDS011;60147;55.036;73.242;2023-06-22T09:56:49;3.55;;;1.83;;
64060;SDS011;60147;55.036;73.242;2023-06-22T09:59:16;6.28;;;1.33;;
64060;SDS011;60147;55.036;73.242;2023-06-22T10:04:27;2.88;;;1.63;;
64060;SDS011;60147;55.036;73.242;2023-06-22T10:07:11;2.05;;;1.40;;
64060;SDS011;60147;55.036;73.242;2023-06-22T10:12:22;1.90;;;1.10;;
64060;SDS011;60147;55.036;73.242;2023-06-22T10:15:06;5.05;;;1.10;;
64060;SDS011;60147;55.036;73.242;2023-06-22T10:17:34;1.77;;;0.82;;
64060;SDS011;60147;55.036;73.242;2023-06-22T10:20:00;3.90;;;1.13;;
64060;SDS011;60147;55.036;73.242;2023-06-22T10:22:38;1.42;;;0.80;;
64060;SDS011;60147;55.036;73.242;2023-06-22T10:25:04;2.38;;;0.82;;
64060;SDS011;60147;55.036;73.242;2023-06-22T10:27:31;1.55;;;0.82;;
64060;SDS011;60147;55.036;73.242;2023-06-22T10:29:58;1.05;;;0.60;;
64060;SDS011;60147;55.036;73.242;2023-06-22T10:32:24;3.17;;;1.00;;
64060;SDS011;60147;55.036;73.242;2023-06-22T10:34:51;2.63;;;0.88;;
64060;SDS011;60147;55.036;73.242;2023-06-22T10:37:17;5.97;;;0.90;;
64060;SDS011;60147;55.036;73.242;2023-06-22T10:39:43;1.75;;;0.60;;
64060;SDS011;60147;55.036;73.242;2023-06-22T10:42:09;3.15;;;1.10;;
64060;SDS011;60147;55.036;73.242;2023-06-22T10:44:35;3.30;;;1.23;;
64060;SDS011;60147;55.036;73.242;2023-06-22T10:47:02;2.25;;;0.90;;
64060;SDS011;60147;55.036;73.242;2023-06-22T10:49:29;3.15;;;0.77;;
64060;SDS011;60147;55.036;73.242;2023-06-22T10:51:55;2.53;;;0.70;;
64060;SDS011;60147;55.036;73.242;2023-06-22T10:54:21;1.98;;;0.75;;
64060;SDS011;60147;55.036;73.242;2023-06-22T10:56:47;8.40;;;1.27;;
64060;SDS011;60147;55.036;73.242;2023-06-22T10:59:13;2.42;;;1.20;;
64060;SDS011;60147;55.036;73.242;2023-06-22T11:01:40;5.53;;;1.00;;
64060;SDS011;60147;55.036;73.242;2023-06-22T11:04:06;4.80;;;0.98;;
64060;SDS011;60147;55.036;73.242;2023-06-22T11:06:32;2.17;;;0.77;;
64060;SDS011;60147;55.036;73.242;2023-06-22T11:08:58;3.28;;;1.20;;
64060;SDS011;60147;55.036;73.242;2023-06-22T11:11:25;4.43;;;1.10;;
64060;SDS011;60147;55.036;73.242;2023-06-22T11:16:54;1.83;;;0.90;;
64060;SDS011;60147;55.036;73.242;2023-06-22T11:19:20;3.45;;;0.95;;
64060;SDS011;60147;55.036;73.242;2023-06-22T11:21:46;3.55;;;1.55;;
64060;SDS011;60147;55.036;73.242;2023-06-22T11:24:12;5.75;;;2.10;;
64060;SDS011;60147;55.036;73.242;2023-06-22T11:26:38;3.85;;;1.95;;
64060;SDS011;60147;55.036;73.242;2023-06-22T11:29:04;3.88;;;1.60;;
64060;SDS011;60147;55.036;73.242;2023-06-22T11:31:31;3.50;;;2.10;;
64060;SDS011;60147;55.036;73.242;2023-06-22T11:33:58;7.47;;;2.20;;
64060;SDS011;60147;55.036;73.242;2023-06-22T11:36:25;3.33;;;1.70;;
64060;SDS011;60147;55.036;73.242;2023-06-22T11:38:51;3.03;;;1.30;;
64060;SDS011;60147;55.036;73.242;2023-06-22T11:41:17;2.83;;;1.35;;
64060;SDS011;60147;55.036;73.242;2023-06-22T11:43:43;3.55;;;2.10;;
64060;SDS011;60147;55.036;73.242;2023-06-22T11:46:08;3.03;;;1.50;;
64060;SDS011;60147;55.036;73.242;2023-06-22T11:48:35;3.33;;;1.70;;
64060;SDS011;60147;55.036;73.242;2023-06-22T11:51:02;3.85;;;1.90;;
64060;SDS011;60147;55.036;73.242;2023-06-22T11:53:29;2.55;;;1.90;;
64060;SDS011;60147;55.036;73.242;2023-06-22T11:55:55;2.97;;;1.83;;
64060;SDS011;60147;55.036;73.242;2023-06-22T11:58:21;4.45;;;1.80;;
64060;SDS011;60147;55.036;73.242;2023-06-22T12:00:47;5.18;;;1.60;;
64060;SDS011;60147;55.036;73.242;2023-06-22T12:03:13;2.88;;;1.50;;
64060;SDS011;60147;55.036;73.242;2023-06-22T12:05:58;3.83;;;1.38;;
64060;SDS011;60147;55.036;73.242;2023-06-22T12:08:24;4.60;;;1.50;;
64060;SDS011;60147;55.036;73.242;2023-06-22T12:10:50;5.88;;;1.67;;
64060;SDS011;60147;55.036;73.242;2023-06-22T12:13:16;5.70;;;1.70;;
64060;SDS011;60147;55.036;73.242;2023-06-22T12:15:42;4.38;;;1.80;;
64060;SDS011;60147;55.036;73.242;2023-06-22T12:18:18;3.22;;;2.05;;
64060;SDS011;60147;55.036;73.242;2023-06-22T12:20:46;4.55;;;2.40;;
64060;SDS011;60147;55.036;73.242;2023-06-22T12:23:13;5.65;;;2.15;;
64060;SDS011;60147;55.036;73.242;2023-06-22T12:28:25;4.22;;;1.80;;
64060;SDS011;60147;55.036;73.242;2023-06-22T12:30:51;15.55;;;8.57;;
64060;SDS011;60147;55.036;73.242;2023-06-22T12:33:17;11.63;;;9.00;;
64060;SDS011;60147;55.036;73.242;2023-06-22T12:36:02;3.30;;;1.88;;
64060;SDS011;60147;55.036;73.242;2023-06-22T12:38:30;2.55;;;1.60;;
64060;SDS011;60147;55.036;73.242;2023-06-22T12:40:56;4.07;;;1.88;;
64060;SDS011;60147;55.036;73.242;2023-06-22T12:43:41;3.80;;;2.30;;
64060;SDS011;60147;55.036;73.242;2023-06-22T12:46:08;14.13;;;9.80;;
64060;SDS011;60147;55.036;73.242;2023-06-22T12:48:36;7.55;;;3.72;;
64060;SDS011;60147;55.036;73.242;2023-06-22T12:51:07;5.80;;;2.97;;
64060;SDS011;60147;55.036;73.242;2023-06-22T12:53:36;10.57;;;3.58;;
64060;SDS011;60147;55.036;73.242;2023-06-22T12:59:05;9.50;;;4.00;;
64060;SDS011;60147;55.036;73.242;2023-06-22T13:01:31;7.10;;;3.58;;
64060;SDS011;60147;55.036;73.242;2023-06-22T13:07:01;7.28;;;3.05;;
64060;SDS011;60147;55.036;73.242;2023-06-22T13:09:27;9.55;;;3.95;;
64060;SDS011;60147;55.036;73.242;2023-06-22T13:12:12;11.98;;;6.47;;
64060;SDS011;60147;55.036;73.242;2023-06-22T13:14:37;6.57;;;4.43;;
64060;SDS011;60147;55.036;73.242;2023-06-22T13:17:03;4.18;;;2.00;;
64060;SDS011;60147;55.036;73.242;2023-06-22T13:22:33;5.95;;;2.70;;
64060;SDS011;60147;55.036;73.242;2023-06-22T13:25:05;4.47;;;1.90;;
64060;SDS011;60147;55.036;73.242;2023-06-22T13:27:31;3.05;;;1.15;;
64060;SDS011;60147;55.036;73.242;2023-06-22T13:29:57;3.40;;;1.40;;
64060;SDS011;60147;55.036;73.242;2023-06-22T13:32:23;3.38;;;1.15;;
64060;SDS011;60147;55.036;73.242;2023-06-22T13:34:49;3.25;;;1.80;;
64060;SDS011;60147;55.036;73.242;2023-06-22T13:37:34;6.95;;;3.05;;
64060;SDS011;60147;55.036;73.242;2023-06-22T13:39:59;34.40;;;23.77;;
64060;SDS011;60147;55.036;73.242;2023-06-22T13:42:25;16.17;;;12.85;;
64060;SDS011;60147;55.036;73.242;2023-06-22T13:44:51;12.23;;;7.90;;
64060;SDS011;60147;55.036;73.242;2023-06-22T13:47:17;11.45;;;5.55;;
64060;SDS011;60147;55.036;73.242;2023-06-22T13:49:43;5.53;;;3.28;;
64060;SDS011;60147;55.036;73.242;2023-06-22T13:52:09;3.25;;;2.08;;
64060;SDS011;60147;55.036;73.242;2023-06-22T13:54:36;4.30;;;2.50;;
64060;SDS011;60147;55.036;73.242;2023-06-22T13:57:02;3.38;;;2.28;;
64060;SDS011;60147;55.036;73.242;2023-06-22T13:59:29;8.77;;;2.22;;
64060;SDS011;60147;55.036;73.242;2023-06-22T14:02:13;6.75;;;4.25;;
64060;SDS011;60147;55.036;73.242;2023-06-22T14:04:39;10.05;;;6.35;;
64060;SDS011;60147;55.036;73.242;2023-06-22T14:07:05;7.43;;;4.28;;
64060;SDS011;60147;55.036;73.242;2023-06-22T14:09:31;64.68;;;32.22;;
64060;SDS011;60147;55.036;73.242;2023-06-22T14:12:16;6.20;;;3.25;;
64060;SDS011;60147;55.036;73.242;2023-06-22T14:14:43;18.25;;;9.18;;
64060;SDS011;60147;55.036;73.242;2023-06-22T14:17:09;5.88;;;2.83;;
64060;SDS011;60147;55.036;73.242;2023-06-22T14:19:37;2.70;;;1.73;;
64060;SDS011;60147;55.036;73.242;2023-06-22T14:22:21;25.10;;;7.95;;
64060;SDS011;60147;55.036;73.242;2023-06-22T14:25:06;14.10;;;5.03;;
64060;SDS011;60147;55.036;73.242;2023-06-22T14:27:50;53.13;;;19.52;;
64060;SDS011;60147;55.036;73.242;2023-06-22T14:30:16;387.25;;;121.90;;
64060;SDS011;60147;55.036;73.242;2023-06-22T14:32:43;38.72;;;13.75;;
64060;SDS011;60147;55.036;73.242;2023-06-22T14:35:09;445.83;;;144.95;;
64060;SDS011;60147;55.036;73.242;2023-06-22T14:37:35;243.68;;;78.22;;
64060;SDS011;60147;55.036;73.242;2023-06-22T14:40:01;655.75;;;274.85;;
64060;SDS011;60147;55.036;73.242;2023-06-22T14:42:27;80.78;;;30.23;;
64060;SDS011;60147;55.036;73.242;2023-06-22T14:45:13;85.65;;;29.10;;
64060;SDS011;60147;55.036;73.242;2023-06-22T14:47:39;147.80;;;55.47;;
64060;SDS011;60147;55.036;73.242;2023-06-22T14:50:05;32.13;;;11.55;;
64060;SDS011;60147;55.036;73.242;2023-06-22T14:52:50;43.10;;;16.40;;
64060;SDS011;60147;55.036;73.242;2023-06-22T14:55:27;20.60;;;9.00;;
64060;SDS011;60147;55.036;73.242;2023-06-22T14:57:53;56.55;;;26.83;;
64060;SDS011;60147;55.036;73.242;2023-06-22T15:00:19;10.80;;;4.75;;
64060;SDS011;60147;55.036;73.242;2023-06-22T15:02:47;10.60;;;4.65;;
64060;SDS011;60147;55.036;73.242;2023-06-22T15:05:13;10.15;;;4.72;;
64060;SDS011;60147;55.036;73.242;2023-06-22T15:07:39;22.60;;;15.40;;
64060;SDS011;60147;55.036;73.242;2023-06-22T15:10:05;23.88;;;18.85;;
64060;SDS011;60147;55.036;73.242;2023-06-22T15:12:31;22.15;;;17.77;;
64060;SDS011;60147;55.036;73.242;2023-06-22T15:14:57;32.20;;;19.95;;
64060;SDS011;60147;55.036;73.242;2023-06-22T15:17:23;23.02;;;16.80;;
64060;SDS011;60147;55.036;73.242;2023-06-22T15:19:49;13.77;;;9.25;;
64060;SDS011;60147;55.036;73.242;2023-06-22T15:22:15;6.93;;;3.45;;
64060;SDS011;60147;55.036;73.242;2023-06-22T15:24:43;8.40;;;4.32;;
64060;SDS011;60147;55.036;73.242;2023-06-22T15:27:11;8.20;;;4.22;;
64060;SDS011;60147;55.036;73.242;2023-06-22T15:29:36;5.88;;;3.70;;
64060;SDS011;60147;55.036;73.242;2023-06-22T15:32:21;8.18;;;3.55;;
64060;SDS011;60147;55.036;73.242;2023-06-22T15:34:47;9.70;;;4.93;;
64060;SDS011;60147;55.036;73.242;2023-06-22T15:37:15;8.52;;;5.07;;
64060;SDS011;60147;55.036;73.242;2023-06-22T15:39:42;5.05;;;3.50;;
64060;SDS011;60147;55.036;73.242;2023-06-22T15:42:08;6.75;;;3.75;;
64060;SDS011;60147;55.036;73.242;2023-06-22T15:44:34;4.53;;;3.25;;
64060;SDS011;60147;55.036;73.242;2023-06-22T15:47:19;7.45;;;3.33;;
64060;SDS011;60147;55.036;73.242;2023-06-22T15:52:32;177.02;;;101.38;;
64060;SDS011;60147;55.036;73.242;2023-06-22T15:54:58;187.13;;;99.55;;
64060;SDS011;60147;55.036;73.242;2023-06-22T15:57:26;586.78;;;375.60;;
64060;SDS011;60147;55.036;73.242;2023-06-22T15:59:52;730.75;;;355.40;;
64060;SDS011;60147;55.036;73.242;2023-06-22T16:02:19;259.50;;;98.00;;
64060;SDS011;60147;55.036;73.242;2023-06-22T16:04:45;16.73;;;8.25;;
64060;SDS011;60147;55.036;73.242;2023-06-22T16:07:13;13.15;;;8.35;;
64060;SDS011;60147;55.036;73.242;2023-06-22T16:09:39;13.00;;;7.22;;
64060;SDS011;60147;55.036;73.242;2023-06-22T16:12:05;18.40;;;10.93;;
64060;SDS011;60147;55.036;73.242;2023-06-22T16:14:31;9.45;;;6.78;;
64060;SDS011;60147;55.036;73.242;2023-06-22T16:16:57;8.93;;;5.57;;
64060;SDS011;60147;55.036;73.242;2023-06-22T16:19:23;10.57;;;7.80;;
64060;SDS011;60147;55.036;73.242;2023-06-22T16:21:49;14.38;;;9.93;;
64060;SDS011;60147;55.036;73.242;2023-06-22T16:24:15;13.25;;;9.80;;
64060;SDS011;60147;55.036;73.242;2023-06-22T16:26:42;10.65;;;7.55;;
64060;SDS011;60147;55.036;73.242;2023-06-22T16:29:26;9.60;;;5.43;;
64060;SDS011;60147;55.036;73.242;2023-06-22T16:31:52;9.63;;;7.30;;
64060;SDS011;60147;55.036;73.242;2023-06-22T16:34:18;11.80;;;9.07;;
64060;SDS011;60147;55.036;73.242;2023-06-22T16:36:43;12.82;;;7.30;;
64060;SDS011;60147;55.036;73.242;2023-06-22T16:39:09;8.02;;;5.25;;
64060;SDS011;60147;55.036;73.242;2023-06-22T16:41:35;6.72;;;3.53;;